createdAt,value
2022-12-01T00:01:07.324Z,79.58
2022-12-01T00:03:35.193Z,79.49
2022-12-01T00:06:07.213Z,79.60
2022-12-01T00:08:34.100Z,79.12
2022-12-01T00:11:09.080Z,79.36
2022-12-01T00:13:36.567Z,78.38
2022-12-01T00:16:14.208Z,78.52
2022-12-01T00:18:41.626Z,78.77
2022-12-01T00:21:18.740Z,78.78
2022-12-01T00:23:47.459Z,78.13
2022-12-01T00:26:14.939Z,78.18
2022-12-01T00:28:41.599Z,78.45
2022-12-01T00:31:09.139Z,78.68
2022-12-01T00:33:35.983Z,78.63
2022-12-01T00:36:03.435Z,78.79
2022-12-01T00:38:30.240Z,78.14
2022-12-01T00:40:56.937Z,78.60
2022-12-01T00:43:24.951Z,78.64
2022-12-01T00:45:51.932Z,78.48
2022-12-01T00:48:20.753Z,78.27
2022-12-01T00:50:47.748Z,78.51
2022-12-01T00:53:14.323Z,78.99
2022-12-01T00:55:40.856Z,78.45
2022-12-01T00:58:07.642Z,78.41
2022-12-01T01:00:34.278Z,78.58
2022-12-01T01:03:00.848Z,78.56
2022-12-01T01:05:27.437Z,78.58
2022-12-01T01:07:54.140Z,78.54
2022-12-01T01:10:20.757Z,78.81
2022-12-01T01:12:47.325Z,78.73
2022-12-01T01:15:13.998Z,77.97
2022-12-01T01:17:40.643Z,79.06
2022-12-01T01:20:07.775Z,78.69
2022-12-01T01:22:35.278Z,78.89
2022-12-01T01:25:01.862Z,78.59
2022-12-01T01:27:28.431Z,78.07
2022-12-01T01:29:54.946Z,78.85
2022-12-01T01:32:21.754Z,79.02
2022-12-01T01:34:48.457Z,78.21
2022-12-01T01:37:15.029Z,78.03
2022-12-01T01:39:41.801Z,78.43
2022-12-01T01:42:12.840Z,77.84
2022-12-01T01:44:54.682Z,77.78
2022-12-01T01:47:28.426Z,77.83
2022-12-01T01:49:57.193Z,77.33
2022-12-01T01:52:24.583Z,77.91
2022-12-01T01:54:55.391Z,78.14
2022-12-01T01:57:42.012Z,77.35
2022-12-01T02:00:12.839Z,77.74
2022-12-01T02:02:44.260Z,77.81
2022-12-01T02:05:20.395Z,77.12
2022-12-01T02:07:47.921Z,77.30
2022-12-01T02:10:22.256Z,77.02
2022-12-01T02:13:20.473Z,77.24
2022-12-01T02:16:18.842Z,77.33
2022-12-01T02:19:43.269Z,77.53
2022-12-01T02:22:27.804Z,78.02
2022-12-01T02:25:18.484Z,77.96
2022-12-01T02:28:03.957Z,78.31
2022-12-01T02:30:58.297Z,77.73
2022-12-01T02:33:50.852Z,77.71
2022-12-01T02:36:20.910Z,77.97
2022-12-01T02:38:55.668Z,78.34
2022-12-01T02:41:24.782Z,77.92
2022-12-01T02:44:16.379Z,77.71
2022-12-01T02:46:54.525Z,77.75
2022-12-01T02:49:26.428Z,78.02
2022-12-01T02:51:55.773Z,77.85
2022-12-01T02:54:24.110Z,77.83
2022-12-01T02:56:54.163Z,77.64
2022-12-01T02:59:20.756Z,77.95
2022-12-01T03:01:52.139Z,78.25
2022-12-01T03:04:30.833Z,78.04
2022-12-01T03:07:35.360Z,78.39
2022-12-01T03:10:21.100Z,78.76
2022-12-01T03:13:06.845Z,78.05
2022-12-01T03:15:45.888Z,78.91
2022-12-01T03:18:18.411Z,78.29
2022-12-01T03:20:58.874Z,78.50
2022-12-01T03:23:30.181Z,78.83
2022-12-01T03:25:59.067Z,78.46
2022-12-01T03:28:32.559Z,78.46
2022-12-01T03:31:05.238Z,79.38
2022-12-01T03:33:36.712Z,79.38
2022-12-01T03:36:25.979Z,79.39
2022-12-01T03:39:00.236Z,79.46
2022-12-01T03:41:42.212Z,78.57
2022-12-01T03:44:16.683Z,79.25
2022-12-01T03:46:55.375Z,79.39
2022-12-01T03:49:24.754Z,79.21
2022-12-01T03:52:19.333Z,79.10
2022-12-01T03:54:57.811Z,79.34
2022-12-01T03:57:30.339Z,78.98
2022-12-01T03:59:57.171Z,78.70
2022-12-01T04:02:27.699Z,79.05
2022-12-01T04:04:54.400Z,79.17
2022-12-01T04:07:21.912Z,79.32
2022-12-01T04:09:49.005Z,79.33
2022-12-01T04:12:32.744Z,79.68
2022-12-01T04:15:01.683Z,79.30
2022-12-01T04:17:28.834Z,78.82
2022-12-01T04:19:55.510Z,79.16
2022-12-01T04:22:23.115Z,79.76
2022-12-01T04:24:49.785Z,79.97
2022-12-01T04:27:16.554Z,79.77
2022-12-01T04:29:43.229Z,79.73
2022-12-01T04:32:09.856Z,79.89
2022-12-01T04:34:36.729Z,78.74
2022-12-01T04:37:04.302Z,79.34
2022-12-01T04:39:30.872Z,79.12
2022-12-01T04:41:57.436Z,79.26
2022-12-01T04:44:24.188Z,78.47
2022-12-01T04:46:52.333Z,79.20
2022-12-01T04:49:20.248Z,78.60
2022-12-01T04:51:46.987Z,78.55
2022-12-01T04:54:14.322Z,78.28
2022-12-01T04:56:41.442Z,78.39
2022-12-01T04:59:08.652Z,78.42
2022-12-01T05:01:35.351Z,78.67
2022-12-01T05:04:02.558Z,78.48
2022-12-01T05:06:29.552Z,78.33
2022-12-01T05:08:58.180Z,77.83
2022-12-01T05:11:25.821Z,78.55
2022-12-01T05:13:52.699Z,77.79
2022-12-01T05:16:22.239Z,78.04
2022-12-01T05:18:50.712Z,78.81
2022-12-01T05:21:18.163Z,78.44
2022-12-01T05:23:45.646Z,78.28
2022-12-01T05:26:12.183Z,77.75
2022-12-01T05:28:40.808Z,77.57
2022-12-01T05:31:07.438Z,77.76
2022-12-01T05:33:34.093Z,77.67
2022-12-01T05:36:00.816Z,78.31
2022-12-01T05:38:30.388Z,78.19
2022-12-01T05:40:56.954Z,77.94
2022-12-01T05:43:29.031Z,77.97
2022-12-01T05:45:56.832Z,78.17
2022-12-01T05:48:23.767Z,77.86
2022-12-01T05:50:50.447Z,78.45
2022-12-01T05:53:17.074Z,78.03
2022-12-01T05:55:43.775Z,77.70
2022-12-01T05:58:11.034Z,78.15
2022-12-01T06:00:45.801Z,78.17
2022-12-01T06:03:13.522Z,78.18
2022-12-01T06:05:40.755Z,78.38
2022-12-01T06:08:08.056Z,78.16
2022-12-01T06:10:34.737Z,78.57
2022-12-01T06:13:01.467Z,78.63
2022-12-01T06:15:28.449Z,77.95
2022-12-01T06:17:55.128Z,77.89
2022-12-01T06:20:23.303Z,78.29
2022-12-01T06:22:49.947Z,78.10
2022-12-01T06:25:16.622Z,77.69
2022-12-01T06:27:43.183Z,77.58
2022-12-01T06:30:10.084Z,77.56
2022-12-01T06:32:36.750Z,78.04
2022-12-01T06:35:03.461Z,77.76
2022-12-01T06:37:30.113Z,77.77
2022-12-01T06:39:56.678Z,78.43
2022-12-01T06:42:23.471Z,78.03
2022-12-01T06:44:50.096Z,77.78
2022-12-01T06:47:16.697Z,77.40
2022-12-01T06:49:43.275Z,78.21
2022-12-01T06:52:10.407Z,77.84
2022-12-01T06:54:37.469Z,78.31
2022-12-01T06:57:04.651Z,78.39
2022-12-01T06:59:31.608Z,78.46
2022-12-01T07:01:58.981Z,78.50
2022-12-01T07:04:25.679Z,78.16
2022-12-01T07:06:52.304Z,77.94
2022-12-01T07:09:19.031Z,78.36
2022-12-01T07:11:45.564Z,78.30
2022-12-01T07:14:23.614Z,77.87
2022-12-01T07:16:50.803Z,78.20
2022-12-01T07:19:17.518Z,77.98
2022-12-01T07:21:44.161Z,78.26
2022-12-01T07:24:12.521Z,77.97
2022-12-01T07:26:40.260Z,78.08
2022-12-01T07:29:07.559Z,78.75
2022-12-01T07:31:34.256Z,78.39
2022-12-01T07:34:00.804Z,77.97
2022-12-01T07:36:27.472Z,78.30
2022-12-01T07:38:54.047Z,77.78
2022-12-01T07:41:20.802Z,78.52
2022-12-01T07:43:50.365Z,78.06
2022-12-01T07:46:23.116Z,78.21
2022-12-01T07:48:51.675Z,77.90
2022-12-01T07:51:18.816Z,78.30
2022-12-01T07:53:47.537Z,78.34
2022-12-01T07:56:14.259Z,78.17
2022-12-01T07:58:41.409Z,78.55
2022-12-01T08:01:09.331Z,78.38
2022-12-01T08:03:36.500Z,78.24
2022-12-01T08:06:03.522Z,78.88
2022-12-01T08:08:32.238Z,78.70
2022-12-01T08:11:05.543Z,78.19
2022-12-01T08:13:32.781Z,77.71
2022-12-01T08:16:02.563Z,77.75
2022-12-01T08:18:29.266Z,78.07
2022-12-01T08:20:58.801Z,77.74
2022-12-01T08:23:25.509Z,78.13
2022-12-01T08:25:55.259Z,77.56
2022-12-01T08:28:21.955Z,77.74
2022-12-01T08:30:48.590Z,77.78
2022-12-01T08:33:15.283Z,77.50
2022-12-01T08:35:41.844Z,78.08
2022-12-01T08:38:09.398Z,77.67
2022-12-01T08:40:36.322Z,77.96
2022-12-01T08:43:03.088Z,77.73
2022-12-01T08:45:29.761Z,77.75
2022-12-01T08:48:00.026Z,77.80
2022-12-01T08:50:27.141Z,78.42
2022-12-01T08:52:53.763Z,78.05
2022-12-01T08:55:21.881Z,78.19
2022-12-01T08:57:48.439Z,78.66
2022-12-01T09:00:16.292Z,78.30
2022-12-01T09:02:42.921Z,77.93
2022-12-01T09:05:09.803Z,78.03
2022-12-01T09:07:36.641Z,77.88
2022-12-01T09:10:04.296Z,77.65
2022-12-01T09:12:30.915Z,77.64
2022-12-01T09:14:57.566Z,78.20
2022-12-01T09:17:24.064Z,77.69
2022-12-01T09:19:51.027Z,77.97
2022-12-01T09:22:17.901Z,78.06
2022-12-01T09:24:44.438Z,78.37
2022-12-01T09:27:10.968Z,77.83
2022-12-01T09:29:37.613Z,77.96
2022-12-01T09:32:04.225Z,77.94
2022-12-01T09:34:30.904Z,77.78
2022-12-01T09:36:58.497Z,77.70
2022-12-01T09:39:25.688Z,77.42
2022-12-01T09:42:22.249Z,77.24
2022-12-01T09:44:52.940Z,77.05
2022-12-01T09:47:29.857Z,77.17
2022-12-01T09:50:27.406Z,77.12
2022-12-01T09:52:59.833Z,76.97
2022-12-01T09:55:28.767Z,77.00
2022-12-01T09:57:57.633Z,77.26
2022-12-01T10:00:40.185Z,76.31
2022-12-01T10:03:22.031Z,76.56
2022-12-01T10:06:25.143Z,76.59
2022-12-01T10:08:43.994Z,76.31
2022-12-01T10:11:29.167Z,76.85
2022-12-01T10:13:55.800Z,76.67
2022-12-01T10:16:31.651Z,76.46
2022-12-01T10:19:32.888Z,77.19
2022-12-01T10:22:23.662Z,77.32
2022-12-01T10:24:59.965Z,77.49
2022-12-01T10:27:38.464Z,77.07
2022-12-01T10:30:16.945Z,76.90
2022-12-01T10:33:01.875Z,77.27
2022-12-01T10:35:36.035Z,77.25
2022-12-01T10:38:06.748Z,77.25
2022-12-01T10:40:36.524Z,76.99
2022-12-01T10:43:03.382Z,77.06
2022-12-01T10:45:37.278Z,77.13
2022-12-01T10:48:17.537Z,76.70
2022-12-01T10:50:48.383Z,77.03
2022-12-01T10:53:28.256Z,76.40
2022-12-01T10:56:06.315Z,76.98
2022-12-01T10:58:43.801Z,76.61
2022-12-01T11:01:22.012Z,76.41
2022-12-01T11:03:57.537Z,76.78
2022-12-01T11:06:28.033Z,77.26
2022-12-01T11:09:01.043Z,77.44
2022-12-01T11:11:40.508Z,77.19
2022-12-01T11:14:23.778Z,77.49
2022-12-01T11:16:53.978Z,77.75
2022-12-01T11:19:33.897Z,77.49
2022-12-01T11:22:03.326Z,77.85
2022-12-01T11:24:29.888Z,77.60
2022-12-01T11:27:00.530Z,77.40
2022-12-01T11:29:36.197Z,77.40
2022-12-01T11:32:22.778Z,77.71
2022-12-01T11:35:03.639Z,77.53
2022-12-01T11:37:38.987Z,77.71
2022-12-01T11:40:13.661Z,77.31
2022-12-01T11:42:41.442Z,77.39
2022-12-01T11:45:21.210Z,77.71
2022-12-01T11:48:16.593Z,78.08
2022-12-01T11:50:45.217Z,77.29
2022-12-01T11:53:32.682Z,77.53
2022-12-01T11:56:28.593Z,76.56
2022-12-01T11:59:03.839Z,76.52
2022-12-01T12:01:42.528Z,76.84
2022-12-01T12:04:30.709Z,76.58
2022-12-01T12:07:13.313Z,76.40
2022-12-01T12:09:55.200Z,76.29
2022-12-01T12:12:49.543Z,76.61
2022-12-01T12:15:28.771Z,76.45
2022-12-01T12:18:29.235Z,76.52
2022-12-01T12:21:29.406Z,76.60
2022-12-01T12:24:03.352Z,76.67
2022-12-01T12:26:35.257Z,76.65
2022-12-01T12:29:37.914Z,76.76
2022-12-01T12:32:28.356Z,76.78
2022-12-01T12:35:23.574Z,77.27
2022-12-01T12:38:02.719Z,77.14
2022-12-01T12:40:41.852Z,77.79
2022-12-01T12:43:27.366Z,78.34
2022-12-01T12:46:09.174Z,78.66
2022-12-01T12:49:19.611Z,78.42
2022-12-01T12:51:56.803Z,78.38
2022-12-01T12:54:43.314Z,78.88
2022-12-01T12:57:35.004Z,78.63
2022-12-01T13:00:05.070Z,78.95
2022-12-01T13:02:43.889Z,79.19
2022-12-01T13:05:19.403Z,78.52
2022-12-01T13:07:46.070Z,78.70
2022-12-01T13:10:44.926Z,78.24
2022-12-01T13:13:25.773Z,78.06
2022-12-01T13:15:55.813Z,77.94
2022-12-01T13:18:30.128Z,77.94
2022-12-01T13:20:57.843Z,77.79
2022-12-01T13:23:25.297Z,77.77
2022-12-01T13:25:56.158Z,77.30
2022-12-01T13:28:53.995Z,77.61
2022-12-01T13:31:21.993Z,77.71
2022-12-01T13:34:03.895Z,77.85
2022-12-01T13:36:46.640Z,78.06
2022-12-01T13:39:40.547Z,77.64
2022-12-01T13:42:23.716Z,77.37
2022-12-01T13:44:56.973Z,77.30
2022-12-01T13:47:31.661Z,77.11
2022-12-01T13:50:36.181Z,77.50
2022-12-01T13:53:30.516Z,77.21
2022-12-01T13:56:03.444Z,77.25
2022-12-01T13:58:33.178Z,76.72
2022-12-01T14:01:21.821Z,76.47
2022-12-01T14:03:57.826Z,76.62
2022-12-01T14:06:51.151Z,76.91
2022-12-01T14:09:24.041Z,76.66
2022-12-01T14:12:17.548Z,77.38
2022-12-01T14:14:57.127Z,76.90
2022-12-01T14:17:33.882Z,76.54
2022-12-01T14:20:19.663Z,77.04
2022-12-01T14:23:13.101Z,76.96
2022-12-01T14:25:41.547Z,76.43
2022-12-01T14:28:19.442Z,76.40
2022-12-01T14:30:46.099Z,76.49
2022-12-01T14:33:42.609Z,76.29
2022-12-01T14:36:24.593Z,76.50
2022-12-01T14:38:54.401Z,76.49
2022-12-01T14:41:45.748Z,76.25
2022-12-01T14:44:17.567Z,76.28
2022-12-01T14:46:51.574Z,76.11
2022-12-01T14:49:24.119Z,76.47
2022-12-01T14:52:06.947Z,76.15
2022-12-01T14:54:45.309Z,76.28
2022-12-01T14:57:17.227Z,76.38
2022-12-01T14:59:44.830Z,76.31
2022-12-01T15:02:12.416Z,75.68
2022-12-01T15:05:27.519Z,76.36
2022-12-01T15:08:18.643Z,76.25
2022-12-01T15:11:00.462Z,76.50
2022-12-01T15:13:30.265Z,76.38
2022-12-01T15:16:02.437Z,76.00
2022-12-01T15:18:31.591Z,76.59
2022-12-01T15:21:06.977Z,75.98
2022-12-01T15:23:33.891Z,76.21
2022-12-01T15:26:00.465Z,76.52
2022-12-01T15:28:35.397Z,76.19
2022-12-01T15:31:10.305Z,76.34
2022-12-01T15:33:39.015Z,76.50
2022-12-01T15:36:07.373Z,76.47
2022-12-01T15:38:36.853Z,76.56
2022-12-01T15:41:28.400Z,76.43
2022-12-01T15:43:58.343Z,76.44
2022-12-01T15:46:36.921Z,76.28
2022-12-01T15:49:29.292Z,77.09
2022-12-01T15:52:10.963Z,76.75
2022-12-01T15:54:38.917Z,76.81
2022-12-01T15:57:06.839Z,76.21
2022-12-01T15:59:40.889Z,76.56
2022-12-01T16:02:31.269Z,76.30
2022-12-01T16:05:13.281Z,76.48
2022-12-01T16:08:11.491Z,76.29
2022-12-01T16:10:28.707Z,75.38
2022-12-01T16:13:33.880Z,75.72
2022-12-01T16:16:00.660Z,75.71
2022-12-01T16:18:34.470Z,75.28
2022-12-01T16:21:04.177Z,75.48
2022-12-01T16:23:32.045Z,75.29
2022-12-01T16:43:39.296Z,77.36
2022-12-01T16:46:19.222Z,77.16
2022-12-01T16:54:54.216Z,77.71
2022-12-01T16:57:21.454Z,77.33
2022-12-01T16:59:49.699Z,77.20
2022-12-01T17:02:18.288Z,77.17
2022-12-01T17:04:45.093Z,77.32
2022-12-01T17:07:11.831Z,76.98
2022-12-01T17:09:38.436Z,77.81
2022-12-01T17:12:05.373Z,76.55
2022-12-01T17:14:32.001Z,76.89
2022-12-01T17:16:58.668Z,77.02
2022-12-01T17:19:25.196Z,76.73
2022-12-01T17:21:52.838Z,76.45
2022-12-01T17:24:19.564Z,77.02
2022-12-01T17:26:46.268Z,76.84
2022-12-01T17:29:12.849Z,76.65
2022-12-01T17:31:39.658Z,76.17
2022-12-01T17:34:06.280Z,76.56
2022-12-01T17:36:34.403Z,76.50
2022-12-01T17:39:00.953Z,76.48
2022-12-01T17:41:32.348Z,76.75
2022-12-01T17:44:01.515Z,76.49
2022-12-01T17:46:28.205Z,76.45
2022-12-01T17:48:54.873Z,76.33
2022-12-01T17:51:21.751Z,76.23
2022-12-01T17:53:48.397Z,76.16
2022-12-01T17:56:16.684Z,76.20
2022-12-01T17:58:43.875Z,76.16
2022-12-01T18:01:16.964Z,76.43
2022-12-01T18:03:43.983Z,76.47
2022-12-01T18:06:12.124Z,76.58
2022-12-01T18:08:39.763Z,76.32
2022-12-01T18:11:10.212Z,76.39
2022-12-01T18:13:42.121Z,76.04
2022-12-01T18:16:14.578Z,76.54
2022-12-01T18:18:42.039Z,75.79
2022-12-01T18:21:11.058Z,75.83
2022-12-01T18:23:37.860Z,76.15
2022-12-01T18:26:16.259Z,76.06
2022-12-01T18:28:43.876Z,75.81
2022-12-01T18:31:13.147Z,75.88
2022-12-01T18:33:42.092Z,75.84
2022-12-01T18:36:16.870Z,75.89
2022-12-01T18:38:44.560Z,76.12
2022-12-01T18:41:11.182Z,75.81
2022-12-01T18:43:37.786Z,75.62
2022-12-01T18:46:05.809Z,75.78
2022-12-01T18:48:33.784Z,75.44
2022-12-01T18:51:04.532Z,75.23
2022-12-01T18:53:31.898Z,75.65
2022-12-01T18:56:05.498Z,75.74
2022-12-01T18:58:32.568Z,76.44
2022-12-01T19:01:00.228Z,76.26
2022-12-01T19:03:33.404Z,75.92
2022-12-01T19:06:00.746Z,76.56
2022-12-01T19:08:27.411Z,76.83
2022-12-01T19:11:00.071Z,76.52
2022-12-01T19:13:27.735Z,76.92
2022-12-01T19:15:54.364Z,76.55
2022-12-01T19:18:21.100Z,76.57
2022-12-01T19:20:48.500Z,76.89
2022-12-01T19:23:15.849Z,77.08
2022-12-01T19:25:43.746Z,76.50
2022-12-01T19:28:10.499Z,76.89
2022-12-01T19:30:37.269Z,77.49
2022-12-01T19:33:04.117Z,78.41
2022-12-01T19:35:31.686Z,78.61
2022-12-01T19:37:58.639Z,78.63
2022-12-01T19:40:25.336Z,78.86
2022-12-01T19:42:52.643Z,79.55
2022-12-01T19:45:19.530Z,79.55
2022-12-01T19:47:46.818Z,79.09
2022-12-01T19:50:13.688Z,79.82
2022-12-01T19:52:41.518Z,79.41
2022-12-01T19:55:10.675Z,78.88
2022-12-01T19:57:37.886Z,78.65
2022-12-01T20:00:05.116Z,78.37
2022-12-01T20:02:38.764Z,78.45
2022-12-01T20:05:05.926Z,77.79
2022-12-01T20:07:32.845Z,77.47
2022-12-01T20:09:59.582Z,77.61
2022-12-01T20:12:26.273Z,77.99
2022-12-01T20:14:53.410Z,77.67
2022-12-01T20:17:20.168Z,78.19
2022-12-01T20:19:46.813Z,78.11
2022-12-01T20:22:13.545Z,78.69
2022-12-01T20:24:42.070Z,78.51
2022-12-01T20:27:09.037Z,78.33
2022-12-01T20:29:35.857Z,77.80
2022-12-01T20:32:03.472Z,78.19
2022-12-01T20:34:33.789Z,78.62
2022-12-01T20:37:02.567Z,78.36
2022-12-01T20:39:32.340Z,78.71
2022-12-01T20:41:59.419Z,78.04
2022-12-01T20:44:27.006Z,78.37
2022-12-01T20:46:58.358Z,78.43
2022-12-01T20:49:25.159Z,78.12
2022-12-01T20:51:51.935Z,78.24
2022-12-01T20:54:28.265Z,78.42
2022-12-01T20:56:56.575Z,78.03
2022-12-01T20:59:23.524Z,77.68
2022-12-01T21:01:50.218Z,77.67
2022-12-01T21:04:17.696Z,77.72
2022-12-01T21:06:44.467Z,77.95
2022-12-01T21:09:12.348Z,77.14
2022-12-01T21:12:06.741Z,77.44
2022-12-01T21:14:37.915Z,77.31
2022-12-01T21:17:28.684Z,77.15
2022-12-01T21:20:08.869Z,77.72
2022-12-01T21:22:36.165Z,77.83
2022-12-01T21:25:12.441Z,77.74
2022-12-01T21:27:39.114Z,78.03
2022-12-01T21:30:18.597Z,77.96
2022-12-01T21:32:46.889Z,78.30
2022-12-01T21:35:17.518Z,78.23
2022-12-01T21:37:44.642Z,78.37
2022-12-01T21:40:23.701Z,78.58
2022-12-01T21:42:51.365Z,78.60
2022-12-01T21:45:29.739Z,78.24
2022-12-01T21:48:25.273Z,78.91
2022-12-01T21:51:01.024Z,78.59
2022-12-01T21:53:36.317Z,78.31
2022-12-01T21:56:03.072Z,78.45
2022-12-01T21:58:36.278Z,78.27
2022-12-01T22:01:15.181Z,78.46
2022-12-01T22:03:46.185Z,78.93
2022-12-01T22:06:30.329Z,78.66
2022-12-01T22:09:11.382Z,79.12
2022-12-01T22:11:38.000Z,78.90
2022-12-01T22:14:21.951Z,78.39
2022-12-01T22:17:21.691Z,78.34
2022-12-01T22:20:22.133Z,78.97
2022-12-01T22:22:48.776Z,78.81
2022-12-01T22:25:25.312Z,78.67
2022-12-01T22:27:52.063Z,78.65
2022-12-01T22:30:21.590Z,79.24
2022-12-01T22:33:10.392Z,79.11
2022-12-01T22:35:50.856Z,78.92
2022-12-01T22:38:43.909Z,78.88
2022-12-01T22:41:15.783Z,78.83
2022-12-01T22:43:42.572Z,78.82
2022-12-01T22:46:35.180Z,78.11
2022-12-01T22:49:10.707Z,78.34
2022-12-01T22:51:46.605Z,78.78
2022-12-01T22:54:16.173Z,78.81
2022-12-01T22:56:53.681Z,78.74
2022-12-01T22:59:41.764Z,79.03
2022-12-01T23:02:22.429Z,78.83
2022-12-01T23:04:57.448Z,79.03
2022-12-01T23:07:30.154Z,79.16
2022-12-01T23:10:02.689Z,78.92
2022-12-01T23:12:32.122Z,78.38
2022-12-01T23:15:16.581Z,78.84
2022-12-01T23:17:43.365Z,78.80
2022-12-01T23:20:09.890Z,78.74
2022-12-01T23:22:37.978Z,79.22
2022-12-01T23:25:16.558Z,78.76
2022-12-01T23:27:46.013Z,79.10
2022-12-01T23:30:14.261Z,79.08
2022-12-01T23:32:40.875Z,79.44
2022-12-01T23:35:14.739Z,78.85
2022-12-01T23:37:43.576Z,79.07
2022-12-01T23:40:21.119Z,79.58
2022-12-01T23:42:48.636Z,79.29
2022-12-01T23:45:21.493Z,79.36
2022-12-01T23:47:49.940Z,79.59
2022-12-01T23:50:23.006Z,79.97
2022-12-01T23:52:49.738Z,79.92
2022-12-01T23:55:25.501Z,80.24
2022-12-01T23:57:52.976Z,80.56
